createdAt,value
2023-05-05T00:02:09.137Z,100509.78
2023-05-05T00:05:10.848Z,100499.13
2023-05-05T00:08:12.482Z,100500.91
2023-05-05T00:11:14.180Z,100496.47
2023-05-05T00:14:17.421Z,100500.03
2023-05-05T00:17:19.150Z,100496.47
2023-05-05T00:20:20.947Z,100495.59
2023-05-05T00:23:22.661Z,100496.47
2023-05-05T00:26:24.634Z,100492.06
2023-05-05T00:29:27.929Z,100492.94
2023-05-05T00:32:29.698Z,100498.25
2023-05-05T00:35:31.470Z,100488.50
2023-05-05T00:38:33.254Z,100492.91
2023-05-05T00:41:34.918Z,100495.59
2023-05-05T00:44:40.460Z,100477.88
2023-05-05T00:47:44.025Z,100480.53
2023-05-05T00:50:45.543Z,100486.72
2023-05-05T00:53:47.569Z,100484.03
2023-05-05T00:56:50.053Z,100474.31
2023-05-05T00:59:54.762Z,100476.94
2023-05-05T01:02:56.590Z,100480.50
2023-05-05T01:06:06.697Z,100474.31
2023-05-05T01:09:16.349Z,100464.53
2023-05-05T01:12:24.550Z,100474.31
2023-05-05T01:15:33.160Z,100471.59
2023-05-05T01:18:42.035Z,100470.69
2023-05-05T01:21:49.693Z,100457.44
2023-05-05T01:25:12.405Z,100466.31
2023-05-05T01:28:27.718Z,100460.09
2023-05-05T01:31:48.119Z,100459.19
2023-05-05T01:34:56.015Z,100462.72
2023-05-05T01:38:03.361Z,100458.28
2023-05-05T01:41:11.070Z,100453.88
2023-05-05T01:44:16.102Z,100448.56
2023-05-05T01:47:20.890Z,100449.44
2023-05-05T01:50:24.550Z,100451.16
2023-05-05T01:53:28.217Z,100449.34
2023-05-05T01:56:31.352Z,100450.19
2023-05-05T01:59:34.187Z,100449.28
2023-05-05T02:02:39.080Z,100459.03
2023-05-05T02:05:43.055Z,100458.16
2023-05-05T02:08:45.853Z,100445.81
2023-05-05T02:11:48.468Z,100451.97
2023-05-05T02:14:51.131Z,100435.19
2023-05-05T02:17:55.529Z,100445.78
2023-05-05T02:20:57.206Z,100451.09
2023-05-05T02:23:59.135Z,100451.09
2023-05-05T02:27:03.656Z,100452.78
2023-05-05T02:30:09.673Z,100449.28
2023-05-05T02:33:17.464Z,100448.38
2023-05-05T02:36:21.734Z,100446.53
2023-05-05T02:39:30.635Z,100451.78
2023-05-05T02:42:35.344Z,100448.22
2023-05-05T02:45:37.428Z,100449.94
2023-05-05T02:48:41.300Z,100446.44
2023-05-05T02:51:42.923Z,100444.63
2023-05-05T02:54:44.990Z,100452.66
2023-05-05T02:57:53.568Z,100450.81
2023-05-05T03:01:07.909Z,100443.72
2023-05-05T03:04:15.999Z,100450.75
2023-05-05T03:07:24.762Z,100445.47
2023-05-05T03:10:29.760Z,100453.38
2023-05-05T03:13:34.606Z,100461.28
2023-05-05T03:16:38.015Z,100461.28
2023-05-05T03:19:42.418Z,100458.56
2023-05-05T03:22:44.594Z,100457.66
2023-05-05T03:25:47.394Z,100461.25
2023-05-05T03:28:49.053Z,100461.19
2023-05-05T03:31:50.841Z,100467.41
2023-05-05T03:34:54.193Z,100465.66
2023-05-05T03:37:56.052Z,100463.91
2023-05-05T03:41:00.984Z,100462.97
2023-05-05T03:44:03.069Z,100467.47
2023-05-05T03:47:05.272Z,100465.66
2023-05-05T03:50:09.345Z,100470.16
2023-05-05T03:53:11.457Z,100477.19
2023-05-05T03:56:14.199Z,100486.06
2023-05-05T03:59:15.799Z,100489.66
2023-05-05T04:02:18.828Z,100481.69
2023-05-05T04:05:21.971Z,100487.03
2023-05-05T04:08:23.618Z,100492.41
2023-05-05T04:11:25.377Z,100479.25
2023-05-05T04:14:27.038Z,100491.63
2023-05-05T04:17:28.697Z,100496.06
2023-05-05T04:20:34.520Z,100489.97
2023-05-05T04:23:36.134Z,100490.03
2023-05-05T04:26:39.518Z,100490.09
2023-05-05T04:29:41.319Z,100491.03
2023-05-05T04:32:42.964Z,100491.94
2023-05-05T04:35:46.503Z,100496.41
2023-05-05T04:38:48.144Z,100499.09
2023-05-05T04:41:49.857Z,100507.09
2023-05-05T04:44:51.616Z,100503.56
2023-05-05T04:47:53.585Z,100494.72
2023-05-05T04:50:56.664Z,100503.56
2023-05-05T04:53:58.592Z,100503.56
2023-05-05T04:57:00.180Z,100501.78
2023-05-05T05:00:01.913Z,100510.66
2023-05-05T05:03:05.584Z,100507.97
2023-05-05T05:06:08.743Z,100501.75
2023-05-05T05:09:10.461Z,100505.31
2023-05-05T05:12:12.209Z,100499.06
2023-05-05T05:15:13.989Z,100506.09
2023-05-05T05:18:15.656Z,100509.56
2023-05-05T05:21:21.338Z,100500.66
2023-05-05T05:24:23.004Z,100515.66
2023-05-05T05:27:24.715Z,100520.03
2023-05-05T05:30:26.384Z,100524.44
2023-05-05T05:33:28.033Z,100521.72
2023-05-05T05:36:31.384Z,100526.13
2023-05-05T05:39:33.334Z,100534.94
2023-05-05T05:42:34.983Z,100525.16
2023-05-05T05:45:36.635Z,100533.09
2023-05-05T05:48:38.260Z,100533.91
2023-05-05T05:51:41.178Z,100530.22
2023-05-05T05:54:42.830Z,100522.09
2023-05-05T05:57:44.780Z,100533.47
2023-05-05T06:00:48.076Z,100522.69
2023-05-05T06:03:49.912Z,100527.94
2023-05-05T06:06:52.948Z,100531.38
2023-05-05T06:09:55.037Z,100532.13
2023-05-05T06:12:56.707Z,100533.81
2023-05-05T06:15:58.880Z,100533.69
2023-05-05T06:19:01.061Z,100533.56
2023-05-05T06:22:04.081Z,100537.88
2023-05-05T06:25:06.710Z,100542.13
2023-05-05T06:28:08.345Z,100531.28
2023-05-05T06:31:10.003Z,100542.75
2023-05-05T06:34:11.912Z,100542.47
2023-05-05T06:37:14.940Z,100539.91
2023-05-05T06:40:16.741Z,100527.25
2023-05-05T06:43:18.448Z,100538.59
2023-05-05T06:46:20.404Z,100535.69
2023-05-05T06:49:22.088Z,100536.56
2023-05-05T06:52:25.383Z,100541.75
2023-05-05T06:55:27.166Z,100545.19
2023-05-05T06:58:29.289Z,100544.28
2023-05-05T07:01:30.949Z,100540.66
2023-05-05T07:04:33.091Z,100537.84
2023-05-05T07:07:36.147Z,100528.16
2023-05-05T07:10:37.845Z,100543.13
2023-05-05T07:13:39.534Z,100534.03
2023-05-05T07:16:41.445Z,100530.50
2023-05-05T07:19:43.166Z,100533.03
2023-05-05T07:22:46.119Z,100534.59
2023-05-05T07:25:47.782Z,100533.50
2023-05-05T07:28:49.468Z,100523.50
2023-05-05T07:31:51.483Z,100531.25
2023-05-05T07:34:53.797Z,100525.63
2023-05-05T07:37:56.838Z,100529.22
2023-05-05T07:40:58.513Z,100524.69
2023-05-05T07:44:00.141Z,100521.09
2023-05-05T07:47:01.823Z,100518.25
2023-05-05T07:50:03.880Z,100521.66
2023-05-05T07:53:14.465Z,100529.19
2023-05-05T07:56:16.659Z,100520.03
2023-05-05T07:59:18.297Z,100520.44
2023-05-05T08:02:22.490Z,100527.50
2023-05-05T08:05:24.677Z,100521.16
2023-05-05T08:08:28.260Z,100512.22
2023-05-05T08:11:29.933Z,100517.91
2023-05-05T08:14:31.573Z,100514.22
2023-05-05T08:17:43.796Z,100509.75
2023-05-05T08:20:47.210Z,100517.75
2023-05-05T08:23:53.193Z,100510.28
2023-05-05T08:26:55.216Z,100513.25
2023-05-05T08:29:57.323Z,100517.59
2023-05-05T08:32:58.970Z,100517.50
2023-05-05T08:36:00.941Z,100519.84
2023-05-05T08:39:04.220Z,100517.47
2023-05-05T08:42:06.717Z,100513.63
2023-05-05T08:45:10.679Z,100519.75
2023-05-05T08:48:16.754Z,100509.88
2023-05-05T08:51:19.718Z,100509.78
2023-05-05T08:54:27.139Z,100506.28
2023-05-05T08:57:41.167Z,100507.13
2023-05-05T09:00:45.348Z,100499.84
2023-05-05T09:03:46.960Z,100502.56
2023-05-05T09:06:48.867Z,100489.50
2023-05-05T09:09:52.292Z,100490.03
2023-05-05T09:12:53.987Z,100486.06
2023-05-05T09:15:55.892Z,100495.47
2023-05-05T09:19:04.363Z,100488.16
2023-05-05T09:22:06.325Z,100477.00
2023-05-05T09:25:10.967Z,100489.13
2023-05-05T09:28:13.941Z,100487.78
2023-05-05T09:31:15.747Z,100487.66
2023-05-05T09:34:17.496Z,100474.81
2023-05-05T09:37:27.170Z,100481.91
2023-05-05T09:40:44.706Z,100483.22
2023-05-05T09:43:51.074Z,100475.59
2023-05-05T09:46:53.092Z,100472.22
2023-05-05T09:49:58.047Z,100472.53
2023-05-05T09:53:01.407Z,100468.44
2023-05-05T09:56:05.279Z,100470.97
2023-05-05T09:59:10.514Z,100465.03
2023-05-05T10:02:13.479Z,100462.84
2023-05-05T10:05:16.622Z,100455.09
2023-05-05T10:08:18.755Z,100462.13
2023-05-05T10:11:21.981Z,100456.75
2023-05-05T10:14:24.091Z,100452.41
2023-05-05T10:17:30.293Z,100450.22
2023-05-05T10:20:33.193Z,100441.75
2023-05-05T10:23:39.176Z,100436.56
2023-05-05T10:26:44.142Z,100439.38
2023-05-05T10:29:52.215Z,100424.56
2023-05-05T10:33:09.141Z,100436.66
2023-05-05T10:36:20.252Z,100421.03
2023-05-05T10:39:23.700Z,100426.53
2023-05-05T10:42:26.747Z,100417.09
2023-05-05T10:45:28.818Z,100422.63
2023-05-05T10:48:35.738Z,100410.03
2023-05-05T10:51:46.903Z,100405.84
2023-05-05T10:54:55.925Z,100410.72
2023-05-05T10:57:58.933Z,100404.56
2023-05-05T11:01:00.705Z,100403.72
2023-05-05T11:04:22.760Z,100400.88
2023-05-05T11:07:24.909Z,100391.59
2023-05-05T11:10:26.782Z,100398.06
2023-05-05T11:13:32.214Z,100385.59
2023-05-05T11:16:44.935Z,100385.00
2023-05-05T11:19:46.790Z,100379.94
2023-05-05T11:23:22.677Z,100373.03
2023-05-05T11:26:49.962Z,100376.47
2023-05-05T11:30:06.196Z,100367.91
2023-05-05T11:33:26.905Z,100375.19
2023-05-05T11:36:40.593Z,100370.38
2023-05-05T11:39:58.510Z,100358.28
2023-05-05T11:43:06.627Z,100350.38
2023-05-05T11:46:13.136Z,100359.47
2023-05-05T11:49:26.719Z,100346.47
2023-05-05T11:52:28.318Z,100353.00
2023-05-05T11:55:30.217Z,100350.34
2023-05-05T11:58:31.875Z,100337.56
2023-05-05T12:01:35.362Z,100339.84
2023-05-05T12:04:39.687Z,100343.34
2023-05-05T12:07:42.475Z,100333.88
2023-05-05T12:10:44.281Z,100342.34
2023-05-05T12:13:46.674Z,100330.81
2023-05-05T12:16:56.425Z,100331.94
2023-05-05T12:19:58.066Z,100330.41
2023-05-05T12:23:03.487Z,100329.59
2023-05-05T12:26:05.389Z,100327.19
2023-05-05T12:29:07.435Z,100310.75
2023-05-05T12:32:18.790Z,100317.25
2023-05-05T12:35:20.700Z,100314.44
2023-05-05T12:38:22.689Z,100303.69
2023-05-05T12:41:24.421Z,100307.78
2023-05-05T12:44:34.914Z,100296.88
2023-05-05T12:47:38.029Z,100294.03
2023-05-05T12:50:40.101Z,100287.25
2023-05-05T12:53:42.419Z,100289.19
2023-05-05T12:56:45.883Z,100280.41
2023-05-05T12:59:48.327Z,100275.09
2023-05-05T13:02:51.720Z,100271.53
2023-05-05T13:05:53.542Z,100274.81
2023-05-05T13:08:55.505Z,100263.06
2023-05-05T13:11:57.141Z,100260.78
2023-05-05T13:14:58.700Z,100258.53
2023-05-05T13:18:01.933Z,100256.56
2023-05-05T13:21:03.874Z,100261.34
2023-05-05T13:24:21.389Z,100260.09
2023-05-05T13:27:27.970Z,100261.63
2023-05-05T13:30:29.918Z,100254.81
2023-05-05T13:33:34.976Z,100255.03
2023-05-05T13:36:36.784Z,100252.78
2023-05-05T13:39:38.655Z,100244.88
2023-05-05T13:42:40.268Z,100241.03
2023-05-05T13:45:42.171Z,100230.53
2023-05-05T13:48:45.326Z,100231.78
2023-05-05T13:51:47.375Z,100238.34
2023-05-05T13:54:49.271Z,100238.75
2023-05-05T13:57:51.145Z,100227.03
2023-05-05T14:00:53.079Z,100227.69
2023-05-05T14:03:57.635Z,100216.69
2023-05-05T14:06:59.549Z,100212.75
2023-05-05T14:10:01.210Z,100227.16
2023-05-05T14:13:03.017Z,100219.59
2023-05-05T14:16:05.280Z,100215.63
2023-05-05T14:19:08.289Z,100221.75
2023-05-05T14:22:09.704Z,100224.03
2023-05-05T14:25:11.589Z,100214.59
2023-05-05T14:28:13.746Z,100212.13
2023-05-05T14:31:15.470Z,100201.53
2023-05-05T14:34:18.480Z,100211.16
2023-05-05T14:37:19.886Z,100200.22
2023-05-05T14:40:21.793Z,100201.44
2023-05-05T14:43:25.706Z,100204.28
2023-05-05T14:46:30.032Z,100215.28
2023-05-05T14:49:33.475Z,100213.06
2023-05-05T14:52:35.711Z,100208.13
2023-05-05T14:55:38.908Z,100218.50
2023-05-05T14:58:40.557Z,100210.66
2023-05-05T15:01:42.230Z,100204.66
2023-05-05T15:04:45.420Z,100209.50
2023-05-05T15:07:47.062Z,100206.47
2023-05-05T15:10:49.077Z,100211.53
2023-05-05T15:13:50.959Z,100207.16
2023-05-05T15:16:52.816Z,100208.69
2023-05-05T15:19:55.769Z,100207.03
2023-05-05T15:22:57.352Z,100193.06
2023-05-05T15:26:04.545Z,100204.75
2023-05-05T15:29:06.302Z,100206.16
2023-05-05T15:32:07.979Z,100205.09
2023-05-05T15:35:11.288Z,100209.38
2023-05-05T15:38:15.878Z,100195.25
2023-05-05T15:41:17.504Z,100190.13
2023-05-05T15:44:19.462Z,100197.19
2023-05-05T15:47:21.370Z,100197.28
2023-05-05T15:50:24.638Z,100197.16
2023-05-05T15:53:26.416Z,100190.13
2023-05-05T15:56:28.409Z,100190.50
2023-05-05T15:59:30.210Z,100187.75
2023-05-05T16:02:31.947Z,100190.16
2023-05-05T16:05:35.017Z,100185.25
2023-05-05T16:08:36.974Z,100188.59
2023-05-05T16:11:38.991Z,100185.09
2023-05-05T16:14:40.766Z,100178.47
2023-05-05T16:17:42.504Z,100178.47
2023-05-05T16:20:45.593Z,100176.69
2023-05-05T16:23:47.036Z,100171.44
2023-05-05T16:26:48.827Z,100179.84
2023-05-05T16:29:51.225Z,100173.19
2023-05-05T16:32:53.145Z,100168.50
2023-05-05T16:35:56.486Z,100172.75
2023-05-05T16:38:58.439Z,100173.75
2023-05-05T16:45:02.340Z,100178.06
2023-05-05T16:48:06.808Z,100172.97
2023-05-05T16:51:12.137Z,100171.69
2023-05-05T16:54:14.122Z,100177.13
2023-05-05T16:57:16.096Z,100170.13
2023-05-05T17:00:18.071Z,100178.41
2023-05-05T17:03:20.172Z,100175.84
2023-05-05T17:06:23.246Z,100176.34
2023-05-05T17:09:25.016Z,100179.16
2023-05-05T17:12:27.033Z,100181.22
2023-05-05T17:15:28.717Z,100169.25
2023-05-05T17:18:30.369Z,100177.84
2023-05-05T17:21:33.494Z,100169.53
2023-05-05T17:24:34.997Z,100177.13
2023-05-05T17:27:36.670Z,100179.50
2023-05-05T17:30:38.301Z,100183.84
2023-05-05T17:33:39.982Z,100176.50
2023-05-05T17:36:43.308Z,100168.72
2023-05-05T17:39:45.239Z,100183.75
2023-05-05T17:42:46.918Z,100194.28
2023-05-05T17:45:48.691Z,100194.09
2023-05-05T17:48:50.975Z,100191.28
2023-05-05T17:51:53.978Z,100199.09
2023-05-05T17:54:55.690Z,100198.91
2023-05-05T17:57:57.481Z,100194.13
2023-05-05T18:00:59.617Z,100187.56
2023-05-05T18:04:01.309Z,100185.50
2023-05-05T18:07:04.855Z,100189.56
2023-05-05T18:10:07.660Z,100194.47
2023-05-05T18:13:09.622Z,100200.19
2023-05-05T18:16:11.373Z,100195.28
2023-05-05T18:19:12.978Z,100205.34
2023-05-05T18:22:16.044Z,100204.69
2023-05-05T18:25:17.881Z,100205.97
2023-05-05T18:28:19.513Z,100209.00
2023-05-05T18:31:21.173Z,100206.59
2023-05-05T18:34:22.892Z,100205.19
2023-05-05T18:37:26.101Z,100203.66
2023-05-05T18:40:27.865Z,100214.78
2023-05-05T18:43:30.610Z,100213.19
2023-05-05T18:46:32.517Z,100211.63
2023-05-05T18:49:34.297Z,100214.50
2023-05-05T18:52:37.288Z,100214.81
2023-05-05T18:55:39.029Z,100221.19
2023-05-05T18:58:40.977Z,100215.31
2023-05-05T19:01:44.626Z,100223.44
2023-05-05T19:04:46.765Z,100220.81
2023-05-05T19:07:50.175Z,100234.28
2023-05-05T19:10:51.632Z,100233.41
2023-05-05T19:13:53.233Z,100229.91
2023-05-05T19:16:55.055Z,100237.94
2023-05-05T19:19:56.953Z,100230.09
2023-05-05T19:22:59.986Z,100233.75
2023-05-05T19:26:02.172Z,100228.63
2023-05-05T19:29:03.906Z,100229.75
2023-05-05T19:32:06.314Z,100224.63
2023-05-05T19:35:08.865Z,100227.53
2023-05-05T19:38:12.216Z,100224.09
2023-05-05T19:41:13.903Z,100230.47
2023-05-05T19:44:16.090Z,100224.53
2023-05-05T19:47:17.780Z,100228.22
2023-05-05T19:50:19.658Z,100220.47
2023-05-05T19:53:22.745Z,100223.25
2023-05-05T19:56:24.589Z,100225.09
2023-05-05T19:59:26.632Z,100213.72
2023-05-05T20:02:28.671Z,100227.09
2023-05-05T20:05:30.537Z,100216.56
2023-05-05T20:08:33.585Z,100206.91
2023-05-05T20:11:35.336Z,100212.34
2023-05-05T20:14:36.995Z,100206.13
2023-05-05T20:17:38.981Z,100210.78
2023-05-05T20:20:40.764Z,100216.28
2023-05-05T20:23:44.280Z,100209.25
2023-05-05T20:26:45.929Z,100214.66
2023-05-05T20:29:47.564Z,100217.41
2023-05-05T20:32:49.257Z,100220.13
2023-05-05T20:35:52.509Z,100211.28
2023-05-05T20:38:55.643Z,100210.44
2023-05-05T20:41:57.467Z,100215.81
2023-05-05T20:45:00.921Z,100209.59
2023-05-05T20:48:03.940Z,100214.16
2023-05-05T20:51:06.055Z,100216.81
2023-05-05T20:54:09.474Z,100218.59
2023-05-05T20:57:10.920Z,100218.63
2023-05-05T21:00:12.959Z,100221.34
2023-05-05T21:03:14.999Z,100216.06
2023-05-05T21:06:16.797Z,100217.88
2023-05-05T21:09:19.798Z,100216.06
2023-05-05T21:12:21.461Z,100214.44
2023-05-05T21:15:23.342Z,100210.91
2023-05-05T21:18:25.012Z,100212.75
2023-05-05T21:21:26.721Z,100215.47
2023-05-05T21:24:29.746Z,100198.69
2023-05-05T21:27:31.362Z,100204.97
2023-05-05T21:30:33.258Z,100206.78
2023-05-05T21:33:34.906Z,100206.81
2023-05-05T21:36:36.831Z,100206.81
2023-05-05T21:39:39.848Z,100194.38
2023-05-05T21:42:42.162Z,100200.63
2023-05-05T21:45:43.949Z,100197.16
2023-05-05T21:48:46.449Z,100185.59
2023-05-05T21:51:48.125Z,100190.84
2023-05-05T21:54:51.173Z,100189.06
2023-05-05T21:57:52.826Z,100182.84
2023-05-05T22:00:54.472Z,100189.09
2023-05-05T22:03:56.495Z,100176.75
2023-05-05T22:06:58.424Z,100189.19
2023-05-05T22:10:01.762Z,100180.38
2023-05-05T22:13:03.453Z,100185.78
2023-05-05T22:16:06.194Z,100187.56
2023-05-05T22:19:07.861Z,100183.16
2023-05-05T22:22:09.479Z,100175.25
2023-05-05T22:25:13.112Z,100163.75
2023-05-05T22:28:14.820Z,100174.34
2023-05-05T22:31:16.696Z,100173.50
2023-05-05T22:34:18.416Z,100172.63
2023-05-05T22:37:20.281Z,100169.09
2023-05-05T22:40:23.430Z,100174.50
2023-05-05T22:43:25.202Z,100170.09
2023-05-05T22:46:26.903Z,100178.09
2023-05-05T22:49:28.697Z,100175.50
2023-05-05T22:52:30.369Z,100175.53
2023-05-05T22:55:33.394Z,100177.31
2023-05-05T22:58:35.096Z,100183.50
2023-05-05T23:01:37.079Z,100191.53
2023-05-05T23:04:38.843Z,100191.53
2023-05-05T23:07:40.761Z,100195.09
2023-05-05T23:10:43.816Z,100185.34
2023-05-05T23:13:45.440Z,100187.16
2023-05-05T23:16:47.170Z,100177.47
2023-05-05T23:19:49.112Z,100181.00
2023-05-05T23:22:51.140Z,100177.47
2023-05-05T23:25:54.144Z,100179.22
2023-05-05T23:28:56.214Z,100172.13
2023-05-05T23:31:58.402Z,100174.78
2023-05-05T23:35:00.302Z,100172.13
2023-05-05T23:38:02.228Z,100169.47
2023-05-05T23:41:05.591Z,100167.72
2023-05-05T23:44:07.557Z,100173.91
2023-05-05T23:47:09.478Z,100166.81
2023-05-05T23:50:11.594Z,100165.00
2023-05-05T23:53:13.626Z,100147.28
2023-05-05T23:56:16.667Z,100148.09
2023-05-05T23:59:18.333Z,100162.25
